createdAt,value
2023-04-12T00:01:35.653Z,41.85
2023-04-12T00:04:03.131Z,42.41
2023-04-12T00:06:31.855Z,42.28
2023-04-12T00:09:01.074Z,42.23
2023-04-12T00:11:29.153Z,42.70
2023-04-12T00:13:56.543Z,42.74
2023-04-12T00:16:24.043Z,42.70
2023-04-12T00:18:51.279Z,42.67
2023-04-12T00:21:18.484Z,42.65
2023-04-12T00:23:48.733Z,42.98
2023-04-12T00:26:16.324Z,43.11
2023-04-12T00:28:43.504Z,43.11
2023-04-12T00:31:10.751Z,43.06
2023-04-12T00:33:37.978Z,43.35
2023-04-12T00:36:05.633Z,43.28
2023-04-12T00:38:32.847Z,43.07
2023-04-12T00:41:00.769Z,42.93
2023-04-12T00:43:27.937Z,42.99
2023-04-12T00:45:57.499Z,43.24
2023-04-12T00:48:26.438Z,43.52
2023-04-12T00:50:54.602Z,42.94
2023-04-12T00:53:22.398Z,43.07
2023-04-12T00:55:51.207Z,43.31
2023-04-12T00:58:18.799Z,43.27
2023-04-12T01:00:46.270Z,43.70
2023-04-12T01:03:13.712Z,43.64
2023-04-12T01:05:57.980Z,43.50
2023-04-12T01:08:38.099Z,43.35
2023-04-12T01:11:34.853Z,43.29
2023-04-12T01:14:28.544Z,43.67
2023-04-12T01:17:03.588Z,44.00
2023-04-12T01:19:33.393Z,43.68
2023-04-12T01:22:53.898Z,43.69
2023-04-12T01:25:48.238Z,43.98
2023-04-12T01:28:22.532Z,43.97
2023-04-12T01:30:51.598Z,44.36
2023-04-12T01:33:21.669Z,44.21
2023-04-12T01:35:51.660Z,43.79
2023-04-12T01:38:19.949Z,43.94
2023-04-12T01:40:49.168Z,44.06
2023-04-12T01:43:16.594Z,44.13
2023-04-12T01:45:43.797Z,44.49
2023-04-12T01:48:12.975Z,44.55
2023-04-12T01:51:10.674Z,44.11
2023-04-12T01:54:13.124Z,44.25
2023-04-12T01:56:46.461Z,44.52
2023-04-12T01:59:18.767Z,44.44
2023-04-12T02:01:47.897Z,44.36
2023-04-12T02:04:19.260Z,43.97
2023-04-12T02:06:48.136Z,43.93
2023-04-12T02:09:15.306Z,43.93
2023-04-12T02:11:46.725Z,44.20
2023-04-12T02:14:14.307Z,44.19
2023-04-12T02:16:41.726Z,44.10
2023-04-12T02:19:09.303Z,44.25
2023-04-12T02:21:46.377Z,44.55
2023-04-12T02:24:15.665Z,44.92
2023-04-12T02:26:42.911Z,45.20
2023-04-12T02:29:10.872Z,44.50
2023-04-12T02:31:38.598Z,44.87
2023-04-12T02:34:06.515Z,44.79
2023-04-12T02:36:33.879Z,44.79
2023-04-12T02:39:01.096Z,44.70
2023-04-12T02:41:28.285Z,45.36
2023-04-12T02:43:55.782Z,45.41
2023-04-12T02:46:25.808Z,45.06
2023-04-12T02:48:53.317Z,45.17
2023-04-12T02:51:20.452Z,44.98
2023-04-12T02:53:47.561Z,45.41
2023-04-12T02:56:14.785Z,45.65
2023-04-12T02:58:42.097Z,45.13
2023-04-12T03:01:09.628Z,45.47
2023-04-12T03:03:36.900Z,45.56
2023-04-12T03:06:04.605Z,45.72
2023-04-12T03:08:31.820Z,45.76
2023-04-12T03:10:59.480Z,45.75
2023-04-12T03:13:26.706Z,45.67
2023-04-12T03:15:58.587Z,45.53
2023-04-12T03:18:26.020Z,45.41
2023-04-12T03:20:53.197Z,45.75
2023-04-12T03:23:20.320Z,46.24
2023-04-12T03:25:47.581Z,46.29
2023-04-12T03:28:14.807Z,46.50
2023-04-12T03:30:41.980Z,46.40
2023-04-12T03:33:09.173Z,46.46
2023-04-12T03:35:36.493Z,46.30
2023-04-12T03:38:03.665Z,46.15
2023-04-12T03:40:30.988Z,46.37
2023-04-12T03:42:59.920Z,46.29
2023-04-12T03:45:28.571Z,46.44
2023-04-12T03:47:55.871Z,46.18
2023-04-12T03:50:23.210Z,46.43
2023-04-12T03:52:50.301Z,46.28
2023-04-12T03:55:17.548Z,46.22
2023-04-12T03:57:44.784Z,46.70
2023-04-12T04:00:12.948Z,46.66
2023-04-12T04:02:40.171Z,46.88
2023-04-12T04:05:07.771Z,46.39
2023-04-12T04:07:35.073Z,46.30
2023-04-12T04:10:02.434Z,46.62
2023-04-12T04:12:29.671Z,46.64
2023-04-12T04:14:56.826Z,46.61
2023-04-12T04:17:25.987Z,47.05
2023-04-12T04:19:53.130Z,46.84
2023-04-12T04:22:21.919Z,47.39
2023-04-12T04:24:49.150Z,47.42
2023-04-12T04:27:16.416Z,47.25
2023-04-12T04:29:43.939Z,47.26
2023-04-12T04:32:12.769Z,47.43
2023-04-12T04:34:39.942Z,47.25
2023-04-12T04:37:07.131Z,47.24
2023-04-12T04:39:34.324Z,47.26
2023-04-12T04:42:01.499Z,47.22
2023-04-12T04:44:31.503Z,47.34
2023-04-12T04:46:58.867Z,47.09
2023-04-12T04:49:26.012Z,46.98
2023-04-12T04:51:53.369Z,47.29
2023-04-12T04:54:20.579Z,46.99
2023-04-12T04:56:47.703Z,47.41
2023-04-12T04:59:14.866Z,47.14
2023-04-12T05:01:42.155Z,47.47
2023-04-12T05:04:09.485Z,47.69
2023-04-12T05:06:36.665Z,48.31
2023-04-12T05:09:04.008Z,48.03
2023-04-12T05:11:31.204Z,48.44
2023-04-12T05:13:58.694Z,48.22
2023-04-12T05:16:26.026Z,48.42
2023-04-12T05:18:53.128Z,48.47
2023-04-12T05:21:20.635Z,49.31
2023-04-12T05:23:48.454Z,49.13
2023-04-12T05:26:16.856Z,49.48
2023-04-12T05:28:53.113Z,49.68
2023-04-12T05:31:20.729Z,49.22
2023-04-12T05:33:48.028Z,48.77
2023-04-12T05:36:15.254Z,48.85
2023-04-12T05:38:42.480Z,48.78
2023-04-12T05:41:09.824Z,48.92
2023-04-12T05:43:37.016Z,48.40
2023-04-12T05:46:06.110Z,48.31
2023-04-12T05:48:33.496Z,47.92
2023-04-12T05:51:02.450Z,48.09
2023-04-12T05:53:29.668Z,48.28
2023-04-12T05:55:56.874Z,48.05
2023-04-12T05:58:23.993Z,47.38
2023-04-12T06:00:51.205Z,47.31
2023-04-12T06:03:18.553Z,47.38
2023-04-12T06:05:45.848Z,47.28
2023-04-12T06:08:13.297Z,47.27
2023-04-12T06:10:40.736Z,47.26
2023-04-12T06:13:07.981Z,46.86
2023-04-12T06:15:35.163Z,46.97
2023-04-12T06:18:02.628Z,46.88
2023-04-12T06:20:29.884Z,47.13
2023-04-12T06:22:56.985Z,46.98
2023-04-12T06:25:24.349Z,47.26
2023-04-12T06:27:51.442Z,47.35
2023-04-12T06:30:19.746Z,47.06
2023-04-12T06:32:47.073Z,47.22
2023-04-12T06:35:14.298Z,47.44
2023-04-12T06:37:41.441Z,47.83
2023-04-12T06:40:10.114Z,47.67
2023-04-12T06:42:37.271Z,47.41
2023-04-12T06:45:05.257Z,47.62
2023-04-12T06:47:33.061Z,47.90
2023-04-12T06:50:00.505Z,47.78
2023-04-12T06:52:27.941Z,47.66
2023-04-12T06:54:56.229Z,48.27
2023-04-12T06:57:23.431Z,48.00
2023-04-12T06:59:50.668Z,47.99
2023-04-12T07:02:17.975Z,48.08
2023-04-12T07:04:45.302Z,48.02
2023-04-12T07:07:12.986Z,47.48
2023-04-12T07:09:40.165Z,47.90
2023-04-12T07:12:07.679Z,48.06
2023-04-12T07:14:34.917Z,48.38
2023-04-12T07:17:02.274Z,47.78
2023-04-12T07:19:29.593Z,47.92
2023-04-12T07:21:57.129Z,48.09
2023-04-12T07:24:24.573Z,48.04
2023-04-12T07:26:54.367Z,48.01
2023-04-12T07:29:21.620Z,47.85
2023-04-12T07:31:48.781Z,47.62
2023-04-12T07:34:16.311Z,47.43
2023-04-12T07:36:44.060Z,47.36
2023-04-12T07:39:11.658Z,47.29
2023-04-12T07:41:42.402Z,46.93
2023-04-12T07:44:09.789Z,46.80
2023-04-12T07:46:39.671Z,46.63
2023-04-12T07:49:07.131Z,46.42
2023-04-12T07:51:34.260Z,46.27
2023-04-12T07:54:01.451Z,46.04
2023-04-12T07:56:28.591Z,45.79
2023-04-12T07:58:55.993Z,45.66
2023-04-12T08:01:23.337Z,45.51
2023-04-12T08:03:50.516Z,45.33
2023-04-12T08:06:17.963Z,45.85
2023-04-12T08:08:45.161Z,45.87
2023-04-12T08:11:12.329Z,45.82
2023-04-12T08:13:39.493Z,45.92
2023-04-12T08:16:07.441Z,45.85
2023-04-12T08:18:34.591Z,45.58
2023-04-12T08:21:02.493Z,45.21
2023-04-12T08:23:29.987Z,44.89
2023-04-12T08:25:57.124Z,44.69
2023-04-12T08:28:24.286Z,45.00
2023-04-12T08:30:51.473Z,45.28
2023-04-12T08:33:18.994Z,45.25
2023-04-12T08:35:46.208Z,44.84
2023-04-12T08:38:13.384Z,45.18
2023-04-12T08:40:43.588Z,44.65
2023-04-12T08:43:12.738Z,44.68
2023-04-12T08:45:40.189Z,44.31
2023-04-12T08:48:07.518Z,43.72
2023-04-12T08:50:34.873Z,43.80
2023-04-12T08:53:03.194Z,44.02
2023-04-12T08:55:30.758Z,44.05
2023-04-12T08:57:59.337Z,44.21
2023-04-12T09:00:27.276Z,44.26
2023-04-12T09:02:54.626Z,43.41
2023-04-12T09:05:31.150Z,43.52
2023-04-12T09:07:59.221Z,43.42
2023-04-12T09:10:34.937Z,43.97
2023-04-12T09:13:03.191Z,42.86
2023-04-12T09:15:30.979Z,42.69
2023-04-12T09:18:09.697Z,42.99
2023-04-12T09:20:38.997Z,42.78
2023-04-12T09:23:22.128Z,42.39
2023-04-12T09:25:49.471Z,42.11
2023-04-12T09:28:26.352Z,41.22
2023-04-12T09:30:59.731Z,41.58
2023-04-12T09:33:38.009Z,41.46
2023-04-12T09:36:07.171Z,41.08
2023-04-12T09:38:34.907Z,41.02
2023-04-12T09:41:25.190Z,40.32
2023-04-12T09:43:54.494Z,40.19
2023-04-12T09:46:21.809Z,39.50
2023-04-12T09:48:55.636Z,39.04
2023-04-12T09:51:34.125Z,39.82
2023-04-12T09:54:09.075Z,40.72
2023-04-12T09:56:37.237Z,40.71
2023-04-12T09:59:06.764Z,40.71
2023-04-12T10:01:40.842Z,40.56
2023-04-12T10:04:09.671Z,40.76
2023-04-12T10:06:37.509Z,41.60
2023-04-12T10:09:05.820Z,41.67
2023-04-12T10:11:33.454Z,42.51
2023-04-12T10:14:03.273Z,43.42
2023-04-12T10:16:34.190Z,43.54
2023-04-12T10:19:04.034Z,43.35
2023-04-12T10:21:31.579Z,43.49
2023-04-12T10:23:59.704Z,42.60
2023-04-12T10:26:27.877Z,42.78
2023-04-12T10:29:23.531Z,42.58
2023-04-12T10:31:50.906Z,42.41
2023-04-12T10:34:18.263Z,42.09
2023-04-12T10:37:04.289Z,41.97
2023-04-12T10:39:51.819Z,42.74
2023-04-12T10:42:28.906Z,42.36
2023-04-12T10:45:23.957Z,42.50
2023-04-12T10:47:54.216Z,42.81
2023-04-12T10:50:33.403Z,42.86
2023-04-12T10:53:12.874Z,43.71
2023-04-12T10:55:40.972Z,42.63
2023-04-12T10:58:11.912Z,42.46
2023-04-12T11:01:01.262Z,41.68
2023-04-12T11:03:28.738Z,41.58
2023-04-12T11:06:20.218Z,40.71
2023-04-12T11:08:56.076Z,40.35
2023-04-12T11:11:25.397Z,40.36
2023-04-12T11:13:55.784Z,40.02
2023-04-12T11:16:23.241Z,40.31
2023-04-12T11:18:51.191Z,39.88
2023-04-12T11:21:19.503Z,40.35
2023-04-12T11:23:48.907Z,40.67
2023-04-12T11:26:30.059Z,41.14
2023-04-12T11:28:57.514Z,42.01
2023-04-12T11:31:24.845Z,42.21
2023-04-12T11:33:52.175Z,42.29
2023-04-12T11:36:19.404Z,41.97
2023-04-12T11:38:47.996Z,42.26
2023-04-12T11:41:15.571Z,42.72
2023-04-12T11:43:43.203Z,42.82
2023-04-12T11:46:10.651Z,42.38
2023-04-12T11:48:38.085Z,42.80
2023-04-12T11:51:24.490Z,42.17
2023-04-12T11:53:55.975Z,42.48
2023-04-12T11:56:23.980Z,42.42
2023-04-12T11:58:51.727Z,42.23
2023-04-12T12:01:24.045Z,42.19
2023-04-12T12:03:51.965Z,42.53
2023-04-12T12:06:20.776Z,42.60
2023-04-12T12:08:53.634Z,42.44
2023-04-12T12:11:22.161Z,42.14
2023-04-12T12:13:55.501Z,42.28
2023-04-12T12:16:30.479Z,42.04
2023-04-12T12:18:58.195Z,42.25
2023-04-12T12:21:26.167Z,42.55
2023-04-12T12:23:53.370Z,42.47
2023-04-12T12:26:26.538Z,41.90
2023-04-12T12:28:57.160Z,42.23
2023-04-12T12:31:27.108Z,42.96
2023-04-12T12:33:59.890Z,42.62
2023-04-12T12:36:36.613Z,42.88
2023-04-12T12:39:12.812Z,42.69
2023-04-12T12:41:41.017Z,42.84
2023-04-12T12:44:08.618Z,42.98
2023-04-12T12:49:06.306Z,43.27
2023-04-12T12:51:33.560Z,43.09
2023-04-12T12:54:00.831Z,43.16
2023-04-12T12:56:27.970Z,43.25
2023-04-12T12:58:55.393Z,43.31
2023-04-12T13:01:23.108Z,43.08
2023-04-12T13:03:50.444Z,42.96
2023-04-12T13:06:17.876Z,43.29
2023-04-12T13:08:45.031Z,42.94
2023-04-12T13:11:12.291Z,43.26
2023-04-12T13:13:39.511Z,43.16
2023-04-12T13:16:07.372Z,42.79
2023-04-12T13:18:34.561Z,42.77
2023-04-12T13:21:01.971Z,42.69
2023-04-12T13:23:29.226Z,42.59
2023-04-12T13:25:56.369Z,42.90
2023-04-12T13:28:23.528Z,42.24
2023-04-12T13:30:50.722Z,41.90
2023-04-12T13:33:20.288Z,42.35
2023-04-12T13:35:49.230Z,42.21
2023-04-12T13:38:16.410Z,42.63
2023-04-12T13:40:43.597Z,42.19
2023-04-12T13:43:10.897Z,42.57
2023-04-12T13:45:38.646Z,42.48
2023-04-12T13:48:06.001Z,42.63
2023-04-12T13:50:33.214Z,42.36
2023-04-12T13:53:00.398Z,42.40
2023-04-12T13:55:27.691Z,42.51
2023-04-12T13:57:54.843Z,42.19
2023-04-12T14:00:22.162Z,42.27
2023-04-12T14:02:49.616Z,42.41
2023-04-12T14:05:17.216Z,42.46
2023-04-12T14:07:44.385Z,42.55
2023-04-12T14:10:11.520Z,42.80
2023-04-12T14:12:38.835Z,42.47
2023-04-12T14:15:06.781Z,42.89
2023-04-12T14:17:34.003Z,43.14
2023-04-12T14:20:01.252Z,43.19
2023-04-12T14:22:28.687Z,43.10
2023-04-12T14:24:55.968Z,43.06
2023-04-12T14:27:23.178Z,43.25
2023-04-12T14:29:50.347Z,43.17
2023-04-12T14:32:17.510Z,43.43
2023-04-12T14:34:44.867Z,43.45
2023-04-12T14:37:12.007Z,43.54
2023-04-12T14:39:39.302Z,43.45
2023-04-12T14:42:06.790Z,43.06
2023-04-12T14:44:34.052Z,42.92
2023-04-12T14:47:01.461Z,42.11
2023-04-12T14:49:30.913Z,41.94
2023-04-12T14:52:01.797Z,41.79
2023-04-12T14:54:29.242Z,42.16
2023-04-12T14:56:56.525Z,42.11
2023-04-12T14:59:23.863Z,41.82
2023-04-12T15:01:51.145Z,42.08
2023-04-12T15:04:18.700Z,42.48
2023-04-12T15:06:45.884Z,42.50
2023-04-12T15:09:14.680Z,42.14
2023-04-12T15:11:41.913Z,42.29
2023-04-12T15:14:10.159Z,42.56
2023-04-12T15:16:37.365Z,42.52
2023-04-12T15:19:12.499Z,42.16
2023-04-12T15:21:43.100Z,42.68
2023-04-12T15:24:10.498Z,43.01
2023-04-12T15:26:38.035Z,43.04
2023-04-12T15:29:05.305Z,43.26
2023-04-12T15:31:32.646Z,43.41
2023-04-12T15:34:00.168Z,43.53
2023-04-12T15:36:27.675Z,43.70
2023-04-12T15:38:54.984Z,43.89
2023-04-12T15:41:22.277Z,43.99
2023-04-12T15:43:49.432Z,44.19
2023-04-12T15:46:16.723Z,43.97
2023-04-12T15:48:43.928Z,44.32
2023-04-12T15:51:11.072Z,44.21
2023-04-12T15:53:38.526Z,44.37
2023-04-12T15:56:06.418Z,44.42
2023-04-12T15:58:33.627Z,44.33
2023-04-12T16:01:01.192Z,44.69
2023-04-12T16:03:28.474Z,44.41
2023-04-12T16:05:55.733Z,44.46
2023-04-12T16:08:23.337Z,44.68
2023-04-12T16:10:50.956Z,44.34
2023-04-12T16:13:18.800Z,44.28
2023-04-12T16:15:47.097Z,44.62
2023-04-12T16:18:16.585Z,44.66
2023-04-12T16:20:43.813Z,44.83
2023-04-12T16:23:11.008Z,44.82
2023-04-12T16:25:38.187Z,44.84
2023-04-12T16:28:05.456Z,44.76
2023-04-12T16:30:33.546Z,44.90
2023-04-12T16:33:01.005Z,45.14
2023-04-12T16:35:28.268Z,45.06
2023-04-12T16:37:55.772Z,45.13
2023-04-12T16:40:23.408Z,45.33
2023-04-12T16:42:50.812Z,45.37
2023-04-12T16:45:18.278Z,45.30
2023-04-12T16:47:46.948Z,45.18
2023-04-12T16:50:14.976Z,45.29
2023-04-12T16:52:42.496Z,45.04
2023-04-12T16:55:10.711Z,44.99
2023-04-12T16:57:42.723Z,45.04
2023-04-12T17:00:13.681Z,45.08
2023-04-12T17:02:41.831Z,44.98
2023-04-12T17:05:09.612Z,45.09
2023-04-12T17:07:37.442Z,45.37
2023-04-12T17:10:06.106Z,44.93
2023-04-12T17:12:34.003Z,45.07
2023-04-12T17:15:01.161Z,45.07
2023-04-12T17:17:28.858Z,44.96
2023-04-12T17:19:57.318Z,45.29
2023-04-12T17:22:24.520Z,45.14
2023-04-12T17:24:51.672Z,45.18
2023-04-12T17:27:19.014Z,45.18
2023-04-12T17:29:46.193Z,45.11
2023-04-12T17:32:13.438Z,45.18
2023-04-12T17:34:40.890Z,45.24
2023-04-12T17:37:08.341Z,45.64
2023-04-12T17:39:35.528Z,45.43
2023-04-12T17:42:02.662Z,45.32
2023-04-12T17:44:30.114Z,45.54
2023-04-12T17:46:57.722Z,45.65
2023-04-12T17:49:25.151Z,45.29
2023-04-12T17:52:05.652Z,45.74
2023-04-12T17:54:37.288Z,45.70
2023-04-12T17:57:05.061Z,45.89
2023-04-12T17:59:32.844Z,45.83
2023-04-12T18:02:01.347Z,46.01
2023-04-12T18:04:30.006Z,45.88
2023-04-12T18:06:58.100Z,46.12
2023-04-12T18:09:26.564Z,46.17
2023-04-12T18:11:54.122Z,46.30
2023-04-12T18:14:21.578Z,46.16
2023-04-12T18:16:49.836Z,46.52
2023-04-12T18:19:17.954Z,46.50
2023-04-12T18:21:46.525Z,46.55
2023-04-12T18:24:14.611Z,46.61
2023-04-12T18:26:46.063Z,46.33
2023-04-12T18:29:13.423Z,46.83
2023-04-12T18:31:40.805Z,46.65
2023-04-12T18:34:09.095Z,46.41
2023-04-12T18:36:36.928Z,46.39
2023-04-12T18:39:07.213Z,46.23
2023-04-12T18:41:34.505Z,46.32
2023-04-12T18:44:02.430Z,46.61
2023-04-12T18:46:29.759Z,46.45
2023-04-12T18:48:57.027Z,46.62
2023-04-12T18:51:24.759Z,46.63
2023-04-12T18:53:52.564Z,46.89
2023-04-12T18:56:21.786Z,46.88
2023-04-12T18:58:56.001Z,47.11
2023-04-12T19:01:25.275Z,47.21
2023-04-12T19:03:52.870Z,47.33
2023-04-12T19:06:20.569Z,47.30
2023-04-12T19:08:51.817Z,47.21
2023-04-12T19:11:20.175Z,47.39
2023-04-12T19:13:49.267Z,47.35
2023-04-12T19:16:17.388Z,47.33
2023-04-12T19:18:46.294Z,47.38
2023-04-12T19:21:14.121Z,47.02
2023-04-12T19:23:42.712Z,47.36
2023-04-12T19:26:10.569Z,47.54
2023-04-12T19:28:39.506Z,47.33
2023-04-12T19:31:09.712Z,47.40
2023-04-12T19:33:41.066Z,47.18
2023-04-12T19:36:11.166Z,47.14
2023-04-12T19:38:40.392Z,46.92
2023-04-12T19:41:08.479Z,46.87
2023-04-12T19:43:36.826Z,46.92
2023-04-12T19:46:05.288Z,46.96
2023-04-12T19:48:34.025Z,47.13
2023-04-12T19:51:02.090Z,46.96
2023-04-12T19:53:32.491Z,46.92
2023-04-12T19:56:00.390Z,46.87
2023-04-12T19:58:28.017Z,47.10
2023-04-12T20:00:57.081Z,46.90
2023-04-12T20:03:26.239Z,47.22
2023-04-12T20:05:59.689Z,47.11
2023-04-12T20:08:29.783Z,47.23
2023-04-12T20:10:57.943Z,47.42
2023-04-12T20:13:28.973Z,47.38
2023-04-12T20:15:59.886Z,47.35
2023-04-12T20:18:29.194Z,47.47
2023-04-12T20:20:57.400Z,47.55
2023-04-12T20:23:28.771Z,47.71
2023-04-12T20:25:57.330Z,47.79
2023-04-12T20:28:26.692Z,47.69
2023-04-12T20:30:57.840Z,47.61
2023-04-12T20:33:25.555Z,47.57
2023-04-12T20:35:53.180Z,47.83
2023-04-12T20:38:21.627Z,47.71
2023-04-12T20:40:50.499Z,47.74
2023-04-12T20:43:19.749Z,47.73
2023-04-12T20:45:48.036Z,47.75
2023-04-12T20:48:18.234Z,47.97
2023-04-12T20:50:47.769Z,47.94
2023-04-12T20:53:16.618Z,48.07
2023-04-12T20:55:46.442Z,47.73
2023-04-12T20:58:16.224Z,47.62
2023-04-12T21:00:43.844Z,47.71
2023-04-12T21:03:11.301Z,47.66
2023-04-12T21:05:38.855Z,47.70
2023-04-12T21:08:07.608Z,47.65
2023-04-12T21:10:35.288Z,47.86
2023-04-12T21:13:02.684Z,47.91
2023-04-12T21:15:30.518Z,48.09
2023-04-12T21:17:58.029Z,48.69
2023-04-12T21:20:26.013Z,48.58
2023-04-12T21:22:53.999Z,48.77
2023-04-12T21:25:21.681Z,48.83
2023-04-12T21:27:50.569Z,48.91
2023-04-12T21:30:18.428Z,49.00
2023-04-12T21:32:46.346Z,48.93
2023-04-12T21:35:14.917Z,49.18
2023-04-12T21:37:42.364Z,48.99
2023-04-12T21:40:10.325Z,48.72
2023-04-12T21:42:39.560Z,48.63
2023-04-12T21:45:08.504Z,48.82
2023-04-12T21:47:36.312Z,49.01
2023-04-12T21:50:03.616Z,48.92
2023-04-12T21:52:30.799Z,48.92
2023-04-12T21:54:58.146Z,48.90
2023-04-12T21:57:25.469Z,48.83
2023-04-12T21:59:52.628Z,48.77
2023-04-12T22:02:19.908Z,48.28
2023-04-12T22:04:47.266Z,48.43
2023-04-12T22:07:14.488Z,48.25
2023-04-12T22:09:41.873Z,48.37
2023-04-12T22:12:09.947Z,48.36
2023-04-12T22:14:37.635Z,48.34
2023-04-12T22:17:04.846Z,48.27
2023-04-12T22:19:32.199Z,48.33
2023-04-12T22:21:59.426Z,48.60
2023-04-12T22:24:26.613Z,48.55
2023-04-12T22:26:53.742Z,48.65
2023-04-12T22:29:20.967Z,48.58
2023-04-12T22:31:48.092Z,49.14
2023-04-12T22:34:15.262Z,49.45
2023-04-12T22:36:42.636Z,49.44
2023-04-12T22:39:09.873Z,49.54
2023-04-12T22:41:37.119Z,49.31
2023-04-12T22:44:04.678Z,49.39
2023-04-12T22:46:32.032Z,49.21
2023-04-12T22:49:00.005Z,49.48
2023-04-12T22:51:27.525Z,50.18
2023-04-12T22:53:54.943Z,51.01
2023-04-12T22:56:22.570Z,51.13
2023-04-12T22:58:49.771Z,51.71
2023-04-12T23:01:17.065Z,52.11
2023-04-12T23:03:44.456Z,52.35
2023-04-12T23:06:11.621Z,52.63
2023-04-12T23:08:39.356Z,53.02
2023-04-12T23:11:07.031Z,53.00
2023-04-12T23:13:35.224Z,52.94
2023-04-12T23:16:03.096Z,53.14
2023-04-12T23:18:30.572Z,53.11
2023-04-12T23:20:57.700Z,53.35
2023-04-12T23:23:24.881Z,53.30
2023-04-12T23:25:52.376Z,53.32
2023-04-12T23:28:19.770Z,53.18
2023-04-12T23:30:49.646Z,53.31
2023-04-12T23:33:19.409Z,53.18
2023-04-12T23:35:48.958Z,53.21
2023-04-12T23:38:17.271Z,53.27
2023-04-12T23:40:44.574Z,53.32
2023-04-12T23:43:11.733Z,52.96
2023-04-12T23:45:39.089Z,52.92
2023-04-12T23:48:06.305Z,52.79
2023-04-12T23:50:33.558Z,52.75
2023-04-12T23:53:00.736Z,52.96
2023-04-12T23:55:27.892Z,52.82
2023-04-12T23:57:55.076Z,52.77
